Weather History for KCCY - July, 2013

Change the Weather History Date:

Tuesday, July 23, 2013

  Actual Average Record
Temperature  
Mean Temperature 68 °F -  
Max Temperature 77 °F 82 °F 97 °F (1965)
Min Temperature 59 °F 60 °F -99 °F (1999)
Cooling Degree Days 3    
Growing Degree Days 18 (Base 50)    
Moisture  
Dew Point 54 °F    
Average Humidity 65    
Maximum Humidity 94    
Minimum Humidity 39    
Precipitation  
Precipitation 0.00 in - - ()
Sea Level Pressure  
Sea Level Pressure 29.94 in    
Wind  
Wind Speed 10 mph (North)    
Max Wind Speed 17 mph    
Max Gust Speed 21 mph    
Visibility 10 miles    
Events      
Averages and records for this station are not official NWS values.
T = Trace of Precipitation, MM = Missing Value Source: NWS Daily Summary

Daily Weather History Graph

Daily Weather History Graph

Search for Another Location

Airport or City:

Trip Planner

Search our weather history database for the weather conditions in past years. The results will help you decide how hot, cold, wet, or windy it might be!

Date:

Astronomy

Jul. 23, 2013 Rise Set
Actual Time 5:52 AM CDT 8:41 PM CDT
Civil Twilight 5:18 AM CDT 9:14 PM CDT
Nautical Twilight 4:36 AM CDT 9:56 PM CDT
Astronomical Twilight 3:48 AM CDT 10:44 PM CDT
Moon 9:05 PM CDT (7/23) 7:04 AM CDT (7/23)
Length of Visible Light 15h 55m
Length of Day
14h 48m
Full, 99% of the Moon is Illuminated
Jul 23
Full
Jul 29
Last Quarter
Aug 6
New
Aug 14
First Quarter
Aug 20
Full

Hourly Weather History & Observations

Time (CDT) Temp. Dew Point Humidity Pressure Visibility Wind Dir Wind Speed Gust Speed Precip Events Conditions
12:15 AM 66.2 °F 62.6 °F 88% 29.83 in 10.0 mi WNW 10.4 mph - N/A   Clear
12:35 AM 66.2 °F 60.8 °F 83% 29.83 in 10.0 mi NW 10.4 mph - N/A   Clear
12:55 AM 66.2 °F 60.8 °F 83% 29.83 in 10.0 mi NW 12.7 mph - N/A   Clear
1:15 AM 66.2 °F 60.8 °F 83% 29.83 in 10.0 mi NNW 11.5 mph - N/A   Clear
1:35 AM 66.2 °F 59.0 °F 78% 29.84 in 10.0 mi NNW 11.5 mph - N/A   Clear
1:55 AM 64.4 °F 59.0 °F 83% 29.84 in 10.0 mi NNW 11.5 mph - N/A   Clear
2:15 AM 64.4 °F 59.0 °F 83% 29.85 in 10.0 mi NNW 8.1 mph - N/A   Clear
2:35 AM 62.6 °F 59.0 °F 88% 29.86 in - NNW 6.9 mph - N/A   Clear
2:55 AM 62.6 °F 59.0 °F 88% 29.87 in 10.0 mi NW 5.8 mph - N/A   Mostly Cloudy
3:15 AM 64.4 °F 59.0 °F 83% 29.87 in 10.0 mi NNW 5.8 mph - N/A   Overcast
3:35 AM 62.6 °F 59.0 °F 88% 29.87 in 10.0 mi NNW 5.8 mph - N/A   Overcast
3:55 AM 60.8 °F 59.0 °F 94% 29.88 in 10.0 mi NNW 6.9 mph - N/A   Scattered Clouds
4:15 AM 60.8 °F 57.2 °F 88% 29.87 in 10.0 mi NNW 5.8 mph - N/A   Partly Cloudy
4:35 AM 60.8 °F 57.2 °F 88% 29.88 in 10.0 mi NNW 6.9 mph - N/A   Partly Cloudy
4:55 AM 60.8 °F 57.2 °F 88% 29.89 in 10.0 mi NW 8.1 mph - N/A   Clear
5:15 AM 60.8 °F 57.2 °F 88% 29.90 in 10.0 mi NW 8.1 mph - N/A   Partly Cloudy
5:35 AM 60.8 °F 57.2 °F 88% 29.90 in 10.0 mi NNW 10.4 mph - N/A   Scattered Clouds
5:55 AM 60.8 °F 55.4 °F 82% 29.89 in 10.0 mi NNW 9.2 mph - N/A   Partly Cloudy
6:15 AM 59.0 °F 55.4 °F 88% 29.89 in 10.0 mi NNW 9.2 mph - N/A   Clear
6:35 AM 59.0 °F 55.4 °F 88% 29.92 in 10.0 mi NW 8.1 mph - N/A   Clear
6:55 AM 60.8 °F 55.4 °F 82% 29.93 in 10.0 mi WNW 5.8 mph - N/A   Clear
7:15 AM 62.6 °F 57.2 °F 82% 29.94 in 10.0 mi NW 8.1 mph - N/A   Clear
7:35 AM 62.6 °F 57.2 °F 82% 29.94 in 10.0 mi NNW 8.1 mph - N/A   Clear
7:55 AM 64.4 °F 57.2 °F 77% 29.94 in 10.0 mi North 9.2 mph - N/A   Clear
8:15 AM 64.4 °F 57.2 °F 77% 29.94 in 10.0 mi North 9.2 mph - N/A   Clear
8:35 AM 66.2 °F 55.4 °F 68% 29.94 in 10.0 mi North 12.7 mph - N/A   Clear
8:55 AM 66.2 °F 55.4 °F 68% 29.95 in 10.0 mi North 13.8 mph - N/A   Clear
9:15 AM 68.0 °F 57.2 °F 68% 29.94 in 10.0 mi North 11.5 mph - N/A   Clear
9:35 AM 68.0 °F 55.4 °F 64% 29.95 in 10.0 mi North 12.7 mph - N/A   Clear
9:55 AM 68.0 °F 53.6 °F 60% 29.96 in 10.0 mi North 10.4 mph - N/A   Clear
10:15 AM 69.8 °F 53.6 °F 56% 29.97 in 10.0 mi NNW 10.4 mph - N/A   Clear
10:35 AM 69.8 °F 53.6 °F 56% 29.97 in 10.0 mi North 13.8 mph - N/A   Clear
10:55 AM 69.8 °F 53.6 °F 56% 29.97 in 10.0 mi NNE 16.1 mph - N/A   Clear
11:15 AM 71.6 °F 53.6 °F 53% 29.97 in 10.0 mi North 13.8 mph 20.7 mph N/A   Clear
11:35 AM 71.6 °F 53.6 °F 53% 29.98 in 10.0 mi NNE 8.1 mph 16.1 mph N/A   Clear
11:55 AM 73.4 °F 51.8 °F 47% 29.99 in 10.0 mi North 11.5 mph - N/A   Clear
12:15 PM 73.4 °F 50.0 °F 44% 29.98 in 10.0 mi NNW 9.2 mph 19.6 mph N/A   Clear
12:35 PM 73.4 °F 51.8 °F 47% 29.98 in 10.0 mi North 13.8 mph - N/A   Clear
12:55 PM 75.2 °F 51.8 °F 44% 29.98 in 10.0 mi NNW 17.3 mph - N/A   Clear
1:15 PM 75.2 °F 51.8 °F 44% 29.98 in 10.0 mi NNE 13.8 mph - N/A   Clear
1:35 PM 75.2 °F 51.8 °F 44% 29.97 in 10.0 mi North 11.5 mph 19.6 mph N/A   Clear
1:55 PM 75.2 °F 50.0 °F 41% 29.97 in 10.0 mi North 13.8 mph - N/A   Clear
2:15 PM 77.0 °F 51.8 °F 41% 29.96 in 10.0 mi North 12.7 mph - N/A   Clear
2:35 PM 77.0 °F 50.0 °F 39% 29.96 in 10.0 mi North 16.1 mph - N/A   Clear
2:55 PM 75.2 °F 50.0 °F 41% 29.97 in 10.0 mi North 12.7 mph 19.6 mph N/A   Clear
3:15 PM 73.4 °F 50.0 °F 44% 29.98 in 10.0 mi North 10.4 mph - N/A   Clear
3:35 PM 73.4 °F 50.0 °F 44% 29.97 in 10.0 mi North 9.2 mph - N/A   Partly Cloudy
3:55 PM 73.4 °F 51.8 °F 47% 29.96 in 10.0 mi NNE 10.4 mph - N/A   Clear
4:15 PM 71.6 °F 50.0 °F 46% 29.96 in 10.0 mi North 12.7 mph - N/A   Clear
4:35 PM 71.6 °F 51.8 °F 50% 29.97 in 10.0 mi North 10.4 mph - N/A   Clear
4:55 PM 71.6 °F 51.8 °F 50% 29.96 in 10.0 mi North 8.1 mph - N/A   Clear
5:15 PM 73.4 °F 51.8 °F 47% 29.96 in 10.0 mi North 10.4 mph - N/A   Clear
5:35 PM 73.4 °F 51.8 °F 47% 29.96 in 10.0 mi North 12.7 mph - N/A   Clear
5:55 PM 73.4 °F 51.8 °F 47% 29.97 in 10.0 mi North 9.2 mph - N/A   Clear
6:15 PM 73.4 °F 50.0 °F 44% 29.96 in 10.0 mi NNE 9.2 mph - N/A   Clear
6:35 PM 73.4 °F 50.0 °F 44% 29.97 in 10.0 mi North 4.6 mph - N/A   Clear
6:55 PM 73.4 °F 51.8 °F 47% 29.97 in 10.0 mi North 5.8 mph - N/A   Clear
7:15 PM 73.4 °F 51.8 °F 47% 29.97 in 10.0 mi North 6.9 mph - N/A   Clear
7:35 PM 73.4 °F 51.8 °F 47% 29.97 in 10.0 mi North 8.1 mph - N/A   Clear
7:55 PM 71.6 °F 51.8 °F 50% 29.98 in 10.0 mi NNE 5.8 mph - N/A   Clear
8:15 PM 71.6 °F 53.6 °F 53% 29.98 in 10.0 mi NE 4.6 mph - N/A   Clear
8:35 PM 69.8 °F 53.6 °F 56% 29.98 in 10.0 mi NE 4.6 mph - N/A   Clear
8:55 PM 68.0 °F 53.6 °F 60% 29.99 in 10.0 mi NE 5.8 mph - N/A   Clear
9:15 PM 66.2 °F 53.6 °F 64% 30.00 in 10.0 mi NE 5.8 mph - N/A   Clear
9:35 PM 64.4 °F 53.6 °F 68% 30.00 in 10.0 mi NE 5.8 mph - N/A   Clear
9:55 PM 64.4 °F 53.6 °F 68% 30.01 in 10.0 mi NE 6.9 mph - N/A   Clear
10:15 PM 64.4 °F 53.6 °F 68% 30.01 in 10.0 mi NE 8.1 mph - N/A   Clear
10:35 PM 62.6 °F 53.6 °F 72% 30.02 in 10.0 mi ENE 5.8 mph - N/A   Clear
10:55 PM 62.6 °F 53.6 °F 72% 30.02 in 10.0 mi NE 6.9 mph - N/A   Clear
11:15 PM 62.6 °F 53.6 °F 72% 30.03 in 10.0 mi ENE 5.8 mph - N/A   Clear
11:35 PM 60.8 °F 53.6 °F 77% 30.03 in 10.0 mi ENE 4.6 mph - N/A   Clear
11:55 PM 60.8 °F 53.6 °F 77% 30.03 in 10.0 mi ENE 5.8 mph - N/A   Clear